Time;durP1;ratioP1;P1;durP2;ratioP2;P2;SDS_P1;SDS_P2;PMS_P1;PMS_P2;Temp;Humidity;BMP_temperature;BMP_pressure;BME280_temperature;BME280_humidity;BME280_pressure;Samples;Min_cycle;Max_cycle;Signal;HPM_P1;HPM_P2
2023/05/09 00:02:05;;;;;;;;;;;;;;;;;;5054490;28;19956;-61
2023/05/09 00:04:31;;;;;;;;;;;;;;;;;;5055089;28;19917;-61
2023/05/09 00:06:57;;;;;;;;;;;;;;;;;;5062129;28;19917;-61
2023/05/09 00:09:23;;;;;;;;;;;;;;;;;;5054633;28;19921;-61
2023/05/09 00:11:49;;;;;;;;;;;;;;;;;;5065640;28;19966;-60
2023/05/09 00:14:17;;;;;;;;;;;;;;;;;;5055806;28;20391;-60
2023/05/09 00:16:43;;;;;;;;;;;;;;;;;;5053415;28;19912;-60
2023/05/09 00:19:09;;;;;;;;;;;;;;;;;;5067086;28;19917;-60
2023/05/09 00:21:35;;;;;;;;;;;;;;;;;;5054663;28;20281;-61
2023/05/09 00:24:00;;;;;;;;;;;;;;;;;;5058502;28;20391;-60
2023/05/09 00:26:26;;;;;;;;;;;;;;;;;;5060671;28;19995;-61
2023/05/09 00:28:52;;;;;;;;;;;;;;;;;;5059004;28;19963;-60
2023/05/09 00:31:18;;;;;;;;;;;;;;;;;;5057623;28;20347;-61
2023/05/09 00:33:44;;;;;;;;;;;;;;;;;;5049859;28;19949;-60
2023/05/09 00:36:10;;;;;;;;;;;;;;;;;;5050141;28;19917;-60
2023/05/09 00:38:36;;;;;;;;;;;;;;;;;;5075273;28;19908;-61
2023/05/09 00:41:02;;;;;;;;;;;;;;;;;;5057401;28;19967;-60
2023/05/09 00:43:28;;;;;;;;;;;;;;;;;;5059473;28;19999;-61
2023/05/09 00:45:54;;;;;;;;;;;;;;;;;;5057279;28;19917;-61
2023/05/09 00:48:19;;;;;;;;;;;;;;;;;;5065012;28;19956;-61
2023/05/09 00:50:51;;;;;;;;;;;;;;;;;;5053219;28;19913;-60
2023/05/09 00:53:17;;;;;;;;;;;;;;;;;;5054450;28;19996;-60
2023/05/09 00:55:43;;;;;;;;;;;;;;;;;;5057336;28;19951;-60
2023/05/09 00:58:09;;;;;;;;;;;;;;;;;;5054694;28;19960;-61
2023/05/09 01:00:35;;;;;;;;;;;;;;;;;;5054558;28;20379;-61
2023/05/09 01:03:01;;;;;;;;;;;;;;;;;;5053541;28;19948;-61
2023/05/09 01:05:27;;;;;;;;;;;;;;;;;;5053388;28;20000;-61
2023/05/09 01:07:53;;;;;;;;;;;;;;;;;;5062080;28;19924;-61
2023/05/09 01:10:19;;;;;;;;;;;;;;;;;;5053587;28;19917;-60
2023/05/09 01:12:45;;;;;;;;;;;;;;;;;;5046574;28;20004;-58
2023/05/09 01:15:10;;;;;;;;;;;;;;;;;;5033346;28;20008;-60
2023/05/09 01:17:36;;;;;;;;;;;;;;;;;;5028502;28;19913;-61
2023/05/09 01:20:04;;;;;;;;;;;;;;;;;;5039605;28;19913;-61
2023/05/09 01:22:30;;;;;;;;;;;;;;;;;;5025374;28;19917;-61
2023/05/09 01:24:56;;;;;;;;;;;;;;;;;;5042573;28;19917;-60
2023/05/09 01:27:22;;;;;;;;;;;;;;;;;;5029151;28;19969;-60
2023/05/09 01:29:48;;;;;;;;;;;;;;;;;;5029062;28;19960;-60
2023/05/09 01:32:14;;;;;;;;;;;;;;;;;;5030379;28;20391;-61
2023/05/09 01:34:40;;;;;;;;;;;;;;;;;;5022544;28;20000;-61
2023/05/09 01:37:06;;;;;;;;;;;;;;;;;;5029375;28;20427;-60
2023/05/09 01:39:32;;;;;;;;;;;;;;;;;;5033830;28;20305;-61
2023/05/09 01:41:58;;;;;;;;;;;;;;;;;;5034082;28;20000;-60
2023/05/09 01:44:24;;;;;;;;;;;;;;;;;;5033897;28;19982;-61
2023/05/09 01:46:50;;;;;;;;;;;;;;;;;;5032723;28;19961;-61
2023/05/09 01:49:15;;;;;;;;;;;;;;;;;;5033020;28;19943;-61
2023/05/09 01:51:41;;;;;;;;;;;;;;;;;;5032465;28;19924;-61
2023/05/09 01:54:07;;;;;;;;;;;;;;;;;;5033764;28;19971;-61
2023/05/09 01:56:35;;;;;;;;;;;;;;;;;;5032596;28;19917;-61
2023/05/09 01:59:01;;;;;;;;;;;;;;;;;;5034185;28;19909;-60
2023/05/09 02:01:26;;;;;;;;;;;;;;;;;;5033198;28;19916;-68
2023/05/09 02:03:52;;;;;;;;;;;;;;;;;;5032280;28;20024;-60
2023/05/09 02:06:18;;;;;;;;;;;;;;;;;;5031699;28;20168;-60
2023/05/09 02:08:44;;;;;;;;;;;;;;;;;;5033581;28;20280;-61
2023/05/09 02:11:10;;;;;;;;;;;;;;;;;;5033149;28;19915;-60
2023/05/09 02:13:37;;;;;;;;;;;;;;;;;;5040337;28;20303;-61
2023/05/09 02:16:03;;;;;;;;;;;;;;;;;;5024833;28;19975;-61
2023/05/09 02:18:31;;;;;;;;;;;;;;;;;;5031597;28;20363;-61
2023/05/09 02:20:57;;;;;;;;;;;;;;;;;;5031265;28;19914;-60
2023/05/09 02:23:23;;;;;;;;;;;;;;;;;;5021534;28;19968;-61
2023/05/09 02:25:49;;;;;;;;;;;;;;;;;;5015894;28;20381;-61
2023/05/09 02:28:15;;;;;;;;;;;;;;;;;;5015924;28;19928;-61
2023/05/09 02:30:41;;;;;;;;;;;;;;;;;;5017180;28;19952;-61
2023/05/09 02:33:07;;;;;;;;;;;;;;;;;;5019150;28;19971;-60
2023/05/09 02:35:33;;;;;;;;;;;;;;;;;;5015986;28;19913;-61
2023/05/09 02:37:59;;;;;;;;;;;;;;;;;;5021982;28;19984;-61
2023/05/09 02:40:25;;;;;;;;;;;;;;;;;;5034479;28;19913;-61
2023/05/09 02:42:51;;;;;;;;;;;;;;;;;;5039910;28;20407;-61
2023/05/09 02:45:17;;;;;;;;;;;;;;;;;;5031583;28;19914;-61
2023/05/09 02:47:43;;;;;;;;;;;;;;;;;;5018266;28;20369;-60
2023/05/09 02:50:09;;;;;;;;;;;;;;;;;;5017692;28;19979;-60
2023/05/09 02:52:35;;;;;;;;;;;;;;;;;;5026632;28;19917;-61
2023/05/09 02:55:01;;;;;;;;;;;;;;;;;;5022538;28;19955;-61
2023/05/09 02:57:26;;;;;;;;;;;;;;;;;;5015268;28;19913;-61
2023/05/09 02:59:52;;;;;;;;;;;;;;;;;;5013276;28;19945;-61
2023/05/09 03:02:18;;;;;;;;;;;;;;;;;;5017060;28;20511;-61
2023/05/09 03:04:44;;;;;;;;;;;;;;;;;;5029351;28;19944;-60
2023/05/09 03:07:10;;;;;;;;;;;;;;;;;;5026466;28;19923;-60
2023/05/09 03:09:36;;;;;;;;;;;;;;;;;;5037732;28;20011;-61
2023/05/09 03:12:02;;;;;;;;;;;;;;;;;;5026796;28;20301;-61
2023/05/09 03:14:28;;;;;;;;;;;;;;;;;;5040509;28;20477;-61
2023/05/09 03:16:54;;;;;;;;;;;;;;;;;;5041478;28;19949;-61
2023/05/09 03:19:20;;;;;;;;;;;;;;;;;;5048910;28;19919;-61
2023/05/09 03:21:46;;;;;;;;;;;;;;;;;;5050941;28;19920;-68
2023/05/09 03:24:12;;;;;;;;;;;;;;;;;;5050615;28;19955;-61
2023/05/09 03:26:38;;;;;;;;;;;;;;;;;;5049209;28;20365;-61
2023/05/09 03:29:04;;;;;;;;;;;;;;;;;;5046376;28;19995;-61
2023/05/09 03:31:30;;;;;;;;;;;;;;;;;;5050200;28;20027;-61
2023/05/09 03:33:56;;;;;;;;;;;;;;;;;;5051216;28;20436;-60
2023/05/09 03:36:22;;;;;;;;;;;;;;;;;;5050418;28;19916;-61
2023/05/09 03:38:48;;;;;;;;;;;;;;;;;;5051439;28;19923;-61
2023/05/09 03:41:14;;;;;;;;;;;;;;;;;;5055359;28;20347;-61
2023/05/09 03:43:40;;;;;;;;;;;;;;;;;;5063971;28;19912;-61
2023/05/09 03:46:06;;;;;;;;;;;;;;;;;;5053662;28;19913;-61
2023/05/09 03:48:32;;;;;;;;;;;;;;;;;;5052493;28;20291;-61
2023/05/09 03:50:58;;;;;;;;;;;;;;;;;;5051312;28;19909;-61
2023/05/09 03:53:23;;;;;;;;;;;;;;;;;;5051895;28;19916;-60
2023/05/09 03:55:49;;;;;;;;;;;;;;;;;;5047440;28;19952;-61
2023/05/09 03:58:18;;;;;;;;;;;;;;;;;;5051547;28;19934;-60
2023/05/09 04:00:44;;;;;;;;;;;;;;;;;;5050458;28;19913;-61
2023/05/09 04:03:10;;;;;;;;;;;;;;;;;;5025956;28;19920;-61
2023/05/09 04:05:36;;;;;;;;;;;;;;;;;;5053391;28;19956;-61
2023/05/09 04:08:01;;;;;;;;;;;;;;;;;;5058576;28;19971;-61
2023/05/09 04:10:27;;;;;;;;;;;;;;;;;;5050275;28;19959;-61
2023/05/09 04:12:53;;;;;;;;;;;;;;;;;;5050442;28;19944;-61
2023/05/09 04:15:19;;;;;;;;;;;;;;;;;;5049035;28;20376;-60
2023/05/09 04:17:45;;;;;;;;;;;;;;;;;;5052366;28;19927;-61
2023/05/09 04:20:11;;;;;;;;;;;;;;;;;;5048809;28;20339;-61
2023/05/09 04:22:37;;;;;;;;;;;;;;;;;;5053735;28;19999;-60
2023/05/09 04:25:03;;;;;;;;;;;;;;;;;;5053154;28;19995;-61
2023/05/09 04:27:29;;;;;;;;;;;;;;;;;;5047674;28;19940;-61
2023/05/09 04:29:55;;;;;;;;;;;;;;;;;;5052983;28;20376;-61
2023/05/09 04:32:21;;;;;;;;;;;;;;;;;;5054598;28;19992;-60
2023/05/09 04:34:47;;;;;;;;;;;;;;;;;;5053450;28;20356;-61
2023/05/09 04:37:13;;;;;;;;;;;;;;;;;;5041798;28;19913;-61
2023/05/09 04:39:39;;;;;;;;;;;;;;;;;;5046648;28;19979;-61
2023/05/09 04:42:05;;;;;;;;;;;;;;;;;;5036534;28;20402;-60
2023/05/09 04:44:32;;;;;;;;;;;;;;;;;;5054044;28;19912;-61
2023/05/09 04:46:57;;;;;;;;;;;;;;;;;;5043369;28;19917;-61
2023/05/09 04:49:23;;;;;;;;;;;;;;;;;;5051622;28;19940;-60
2023/05/09 04:51:49;;;;;;;;;;;;;;;;;;5051662;28;20432;-61
2023/05/09 04:54:15;;;;;;;;;;;;;;;;;;5059684;28;19917;-60
2023/05/09 04:56:41;;;;;;;;;;;;;;;;;;5060889;28;19913;-61
2023/05/09 04:59:07;;;;;;;;;;;;;;;;;;5051144;28;19952;-61
2023/05/09 05:01:33;;;;;;;;;;;;;;;;;;5049408;28;19960;-61
2023/05/09 05:03:59;;;;;;;;;;;;;;;;;;5040717;28;19917;-61
2023/05/09 05:06:25;;;;;;;;;;;;;;;;;;5055310;28;20393;-60
2023/05/09 05:08:50;;;;;;;;;;;;;;;;;;5055992;28;19952;-61
2023/05/09 05:11:16;;;;;;;;;;;;;;;;;;5050928;28;19923;-61
2023/05/09 05:13:42;;;;;;;;;;;;;;;;;;5055360;28;20372;-61
2023/05/09 05:16:08;;;;;;;;;;;;;;;;;;5052154;28;19988;-61
2023/05/09 05:18:34;;;;;;;;;;;;;;;;;;5055765;28;20289;-61
2023/05/09 05:21:00;;;;;;;;;;;;;;;;;;5054951;28;19940;-62
2023/05/09 05:23:26;;;;;;;;;;;;;;;;;;5052847;28;19944;-61
2023/05/09 05:25:52;;;;;;;;;;;;;;;;;;5063311;28;19952;-61
2023/05/09 05:28:18;;;;;;;;;;;;;;;;;;5056117;28;19949;-61
2023/05/09 05:30:44;;;;;;;;;;;;;;;;;;5065624;28;19947;-60
2023/05/09 05:33:10;;;;;;;;;;;;;;;;;;5052327;28;19971;-61
2023/05/09 05:35:36;;;;;;;;;;;;;;;;;;5050040;28;20340;-61
2023/05/09 05:38:02;;;;;;;;;;;;;;;;;;5053882;28;19919;-60
2023/05/09 05:40:27;;;;;;;;;;;;;;;;;;5052776;28;20420;-62
2023/05/09 05:42:53;;;;;;;;;;;;;;;;;;5052613;28;20008;-61
2023/05/09 05:45:19;;;;;;;;;;;;;;;;;;5056861;28;19959;-60
2023/05/09 05:47:45;;;;;;;;;;;;;;;;;;5056477;28;19912;-61
2023/05/09 05:50:11;;;;;;;;;;;;;;;;;;5049623;28;20524;-61
2023/05/09 05:52:37;;;;;;;;;;;;;;;;;;5048804;28;20694;-61
2023/05/09 05:55:03;;;;;;;;;;;;;;;;;;5049606;28;19955;-61
2023/05/09 05:57:29;;;;;;;;;;;;;;;;;;5049116;28;20007;-61
2023/05/09 05:59:55;;;;;;;;;;;;;;;;;;5048875;28;19912;-62
2023/05/09 06:02:21;;;;;;;;;;;;;;;;;;5047226;28;19909;-61
2023/05/09 06:04:47;;;;;;;;;;;;;;;;;;5057045;28;20337;-61
2023/05/09 06:07:13;;;;;;;;;;;;;;;;;;5052549;28;19921;-61
2023/05/09 06:09:39;;;;;;;;;;;;;;;;;;5053070;28;19958;-61
2023/05/09 06:12:05;;;;;;;;;;;;;;;;;;5054020;28;19913;-61
2023/05/09 06:14:31;;;;;;;;;;;;;;;;;;5052500;28;20283;-60
2023/05/09 06:16:57;;;;;;;;;;;;;;;;;;5052660;28;19912;-61
2023/05/09 06:19:23;;;;;;;;;;;;;;;;;;5053018;28;20004;-61
2023/05/09 06:21:48;;;;;;;;;;;;;;;;;;5052159;28;20027;-61
2023/05/09 06:24:14;;;;;;;;;;;;;;;;;;5060002;28;19931;-61
2023/05/09 06:26:40;;;;;;;;;;;;;;;;;;5088572;28;19940;-61
2023/05/09 06:29:06;;;;;;;;;;;;;;;;;;5057418;28;19923;-61
2023/05/09 06:31:37;;;;;;;;;;;;;;;;;;5056673;28;20350;-61
2023/05/09 06:34:03;;;;;;;;;;;;;;;;;;5072904;28;19955;-61
2023/05/09 06:36:29;;;;;;;;;;;;;;;;;;5072363;28;19916;-61
2023/05/09 06:38:55;;;;;;;;;;;;;;;;;;5067163;28;19932;-61
2023/05/09 06:41:21;;;;;;;;;;;;;;;;;;5052738;28;20322;-62
2023/05/09 06:43:47;;;;;;;;;;;;;;;;;;5052439;28;19924;-61
2023/05/09 06:46:13;;;;;;;;;;;;;;;;;;5052050;28;19995;-61
2023/05/09 06:48:39;;;;;;;;;;;;;;;;;;5049447;28;20434;-61
2023/05/09 06:51:05;;;;;;;;;;;;;;;;;;5055165;28;20387;-61
2023/05/09 06:53:30;;;;;;;;;;;;;;;;;;5067569;28;19916;-61
2023/05/09 06:55:56;;;;;;;;;;;;;;;;;;5051640;28;20320;-61
2023/05/09 06:58:22;;;;;;;;;;;;;;;;;;5052252;28;19909;-61
2023/05/09 07:00:48;;;;;;;;;;;;;;;;;;5048992;28;20015;-61
2023/05/09 07:03:14;;;;;;;;;;;;;;;;;;5034809;28;19963;-61
2023/05/09 07:05:40;;;;;;;;;;;;;;;;;;5050620;28;19920;-61
2023/05/09 07:08:06;;;;;;;;;;;;;;;;;;5051441;28;20361;-61
2023/05/09 07:10:32;;;;;;;;;;;;;;;;;;5051114;28;19916;-61
2023/05/09 07:12:58;;;;;;;;;;;;;;;;;;5050915;28;19959;-61
2023/05/09 07:15:24;;;;;;;;;;;;;;;;;;5042370;28;19979;-61
2023/05/09 07:17:51;;;;;;;;;;;;;;;;;;5061485;28;21559;-61
2023/05/09 07:20:17;;;;;;;;;;;;;;;;;;5055698;28;19935;-61
2023/05/09 07:22:43;;;;;;;;;;;;;;;;;;5072093;28;19960;-61
2023/05/09 07:25:09;;;;;;;;;;;;;;;;;;5072124;28;19960;-61
2023/05/09 07:27:35;;;;;;;;;;;;;;;;;;5057589;28;19917;-61
2023/05/09 07:30:01;;;;;;;;;;;;;;;;;;5052031;28;19919;-61
2023/05/09 07:32:27;;;;;;;;;;;;;;;;;;5052138;28;19909;-61
2023/05/09 07:34:53;;;;;;;;;;;;;;;;;;5051131;28;19963;-61
2023/05/09 07:37:19;;;;;;;;;;;;;;;;;;5050673;28;20457;-61
2023/05/09 07:39:46;;;;;;;;;;;;;;;;;;5051617;28;19915;-61
2023/05/09 07:42:12;;;;;;;;;;;;;;;;;;5051592;28;19909;-61
2023/05/09 07:44:38;;;;;;;;;;;;;;;;;;5052167;28;20330;-62
2023/05/09 07:47:04;;;;;;;;;;;;;;;;;;5059753;28;19916;-61
2023/05/09 07:49:30;;;;;;;;;;;;;;;;;;5060033;28;19917;-61
2023/05/09 07:51:56;;;;;;;;;;;;;;;;;;5051378;28;20011;-61
2023/05/09 07:54:22;;;;;;;;;;;;;;;;;;5051957;28;19913;-61
2023/05/09 07:56:47;;;;;;;;;;;;;;;;;;5060018;28;19917;-61
2023/05/09 07:59:13;;;;;;;;;;;;;;;;;;5075910;28;19909;-61
2023/05/09 08:01:39;;;;;;;;;;;;;;;;;;5075371;28;19971;-62
2023/05/09 08:04:07;;;;;;;;;;;;;;;;;;5075383;28;19909;-59
2023/05/09 08:06:33;;;;;;;;;;;;;;;;;;5072938;28;19917;-61
2023/05/09 08:08:59;;;;;;;;;;;;;;;;;;5067133;28;19917;-61
2023/05/09 08:11:25;;;;;;;;;;;;;;;;;;5070477;28;19944;-61
2023/05/09 08:13:51;;;;;;;;;;;;;;;;;;5055418;28;19920;-61
2023/05/09 08:16:17;;;;;;;;;;;;;;;;;;5065554;28;20012;-61
2023/05/09 08:18:43;;;;;;;;;;;;;;;;;;5053230;28;19909;-61
2023/05/09 08:21:09;;;;;;;;;;;;;;;;;;5054123;28;20380;-61
2023/05/09 08:23:35;;;;;;;;;;;;;;;;;;5058715;28;19917;-61
2023/05/09 08:26:00;;;;;;;;;;;;;;;;;;5073298;28;20518;-61
2023/05/09 08:28:27;;;;;;;;;;;;;;;;;;5075291;28;20007;-61
2023/05/09 08:30:53;;;;;;;;;;;;;;;;;;5055711;28;19913;-61
2023/05/09 08:33:19;;;;;;;;;;;;;;;;;;5052852;28;19955;-61
2023/05/09 08:35:45;;;;;;;;;;;;;;;;;;5055160;28;19909;-62
2023/05/09 08:38:11;;;;;;;;;;;;;;;;;;5054851;28;19904;-61
2023/05/09 08:40:37;;;;;;;;;;;;;;;;;;5054729;28;19949;-62
2023/05/09 08:43:02;;;;;;;;;;;;;;;;;;5058434;28;19913;-61
2023/05/09 08:45:28;;;;;;;;;;;;;;;;;;5075052;28;19954;-61
2023/05/09 08:47:54;;;;;;;;;;;;;;;;;;5057328;28;19917;-61
2023/05/09 08:50:20;;;;;;;;;;;;;;;;;;5061941;28;19912;-61
2023/05/09 08:52:46;;;;;;;;;;;;;;;;;;5055703;28;19909;-60
2023/05/09 08:55:12;;;;;;;;;;;;;;;;;;5056809;28;19909;-61
2023/05/09 08:57:39;;;;;;;;;;;;;;;;;;5051754;28;19963;-61
2023/05/09 09:00:05;;;;;;;;;;;;;;;;;;5052856;28;19919;-61
2023/05/09 09:02:31;;;;;;;;;;;;;;;;;;5054351;28;20000;-61
2023/05/09 09:04:57;;;;;;;;;;;;;;;;;;5054662;28;20003;-61
2023/05/09 09:07:22;;;;;;;;;;;;;;;;;;5055444;28;19925;-61
2023/05/09 09:09:48;;;;;;;;;;;;;;;;;;5074283;28;19915;-61
2023/05/09 09:12:14;;;;;;;;;;;;;;;;;;5063110;28;19913;-61
2023/05/09 09:14:40;;;;;;;;;;;;;;;;;;5053100;28;20756;-61
2023/05/09 09:17:06;;;;;;;;;;;;;;;;;;5052991;28;19999;-61
2023/05/09 09:19:32;;;;;;;;;;;;;;;;;;5072966;28;20742;-61
2023/05/09 09:21:58;;;;;;;;;;;;;;;;;;5073606;28;19920;-65
2023/05/09 09:24:24;;;;;;;;;;;;;;;;;;5070829;28;19940;-61
2023/05/09 09:26:50;;;;;;;;;;;;;;;;;;5053787;28;19951;-61
2023/05/09 09:29:16;;;;;;;;;;;;;;;;;;5054209;28;19917;-61
2023/05/09 09:31:42;;;;;;;;;;;;;;;;;;5053416;28;19913;-60
2023/05/09 09:34:07;;;;;;;;;;;;;;;;;;5054002;28;20012;-61
2023/05/09 09:36:35;;;;;;;;;;;;;;;;;;5053840;28;19919;-61
2023/05/09 09:39:03;;;;;;;;;;;;;;;;;;5036355;28;19990;-61
2023/05/09 09:41:29;;;;;;;;;;;;;;;;;;5064047;28;19912;-61
2023/05/09 09:43:55;;;;;;;;;;;;;;;;;;5063399;28;20567;-61
2023/05/09 09:46:21;;;;;;;;;;;;;;;;;;5053614;28;19912;-61
2023/05/09 09:48:53;;;;;;;;;;;;;;;;;;5053612;28;19974;-61
2023/05/09 09:51:20;;;;;;;;;;;;;;;;;;5051003;28;19916;-61
2023/05/09 09:53:46;;;;;;;;;;;;;;;;;;5066330;28;19920;-61
2023/05/09 09:56:12;;;;;;;;;;;;;;;;;;5053582;28;19913;-61
2023/05/09 09:58:38;;;;;;;;;;;;;;;;;;5057144;28;19956;-61
2023/05/09 10:01:04;;;;;;;;;;;;;;;;;;5053155;28;19916;-61
2023/05/09 10:03:30;;;;;;;;;;;;;;;;;;5053620;28;19975;-61
2023/05/09 10:05:56;;;;;;;;;;;;;;;;;;5068771;28;20332;-61
2023/05/09 10:08:22;;;;;;;;;;;;;;;;;;5060412;28;20035;-61
2023/05/09 10:10:48;;;;;;;;;;;;;;;;;;5052489;28;19912;-61
2023/05/09 10:13:14;;;;;;;;;;;;;;;;;;5052757;28;19967;-61
2023/05/09 10:15:40;;;;;;;;;;;;;;;;;;5068950;28;19919;-61
2023/05/09 10:18:07;;;;;;;;;;;;;;;;;;5058068;28;19909;-61
2023/05/09 10:20:33;;;;;;;;;;;;;;;;;;5069907;28;20424;-61
2023/05/09 10:22:59;;;;;;;;;;;;;;;;;;5072778;28;20008;-61
2023/05/09 10:25:24;;;;;;;;;;;;;;;;;;5053531;28;19912;-61
2023/05/09 10:27:50;;;;;;;;;;;;;;;;;;5052700;28;19917;-60
2023/05/09 10:30:16;;;;;;;;;;;;;;;;;;5052841;28;19963;-61
2023/05/09 10:32:42;;;;;;;;;;;;;;;;;;5051484;28;19916;-61
2023/05/09 10:35:08;;;;;;;;;;;;;;;;;;5052170;28;20004;-61
2023/05/09 10:37:34;;;;;;;;;;;;;;;;;;5071362;28;19912;-62
2023/05/09 10:40:00;;;;;;;;;;;;;;;;;;5072451;28;19915;-61
2023/05/09 10:42:27;;;;;;;;;;;;;;;;;;5060250;28;19999;-61
2023/05/09 10:44:53;;;;;;;;;;;;;;;;;;5050192;28;19917;-61
2023/05/09 10:47:19;;;;;;;;;;;;;;;;;;5052712;28;19967;-61
2023/05/09 10:49:44;;;;;;;;;;;;;;;;;;5052212;28;20000;-60
2023/05/09 10:52:11;;;;;;;;;;;;;;;;;;5052159;28;19916;-61
2023/05/09 10:54:37;;;;;;;;;;;;;;;;;;5052655;28;19909;-61
2023/05/09 10:57:05;;;;;;;;;;;;;;;;;;5052085;28;19913;-61
2023/05/09 10:59:31;;;;;;;;;;;;;;;;;;5053128;28;19917;-61
2023/05/09 11:01:59;;;;;;;;;;;;;;;;;;5071242;28;20398;-61
2023/05/09 11:04:25;;;;;;;;;;;;;;;;;;5062820;28;19952;-61
2023/05/09 11:06:51;;;;;;;;;;;;;;;;;;5071137;28;19951;-59
2023/05/09 11:09:17;;;;;;;;;;;;;;;;;;5063248;28;19909;-61
2023/05/09 11:11:43;;;;;;;;;;;;;;;;;;5049429;28;19917;-62
2023/05/09 11:14:09;;;;;;;;;;;;;;;;;;5051093;28;19983;-61
2023/05/09 11:16:35;;;;;;;;;;;;;;;;;;5049588;28;19913;-61
2023/05/09 11:19:01;;;;;;;;;;;;;;;;;;5046990;28;19921;-59
2023/05/09 11:21:27;;;;;;;;;;;;;;;;;;5042782;28;19933;-59
2023/05/09 11:23:53;;;;;;;;;;;;;;;;;;5053390;28;20383;-59
2023/05/09 11:26:19;;;;;;;;;;;;;;;;;;5048488;28;19959;-59
2023/05/09 11:28:45;;;;;;;;;;;;;;;;;;5050895;28;20043;-60
2023/05/09 11:31:11;;;;;;;;;;;;;;;;;;5041180;28;20375;-59
2023/05/09 11:33:37;;;;;;;;;;;;;;;;;;5056356;28;20014;-59
2023/05/09 11:36:03;;;;;;;;;;;;;;;;;;5049994;28;19976;-59
2023/05/09 11:38:29;;;;;;;;;;;;;;;;;;5047711;28;19963;-59
2023/05/09 11:40:55;;;;;;;;;;;;;;;;;;5039648;28;20385;-59
2023/05/09 11:43:20;;;;;;;;;;;;;;;;;;5044436;28;19913;-59
2023/05/09 11:45:46;;;;;;;;;;;;;;;;;;5049763;28;19999;-59
2023/05/09 11:48:12;;;;;;;;;;;;;;;;;;5042862;28;19948;-59
2023/05/09 11:50:40;;;;;;;;;;;;;;;;;;5055225;28;19936;-59
2023/05/09 11:53:07;;;;;;;;;;;;;;;;;;5054573;28;19931;-59
2023/05/09 11:55:32;;;;;;;;;;;;;;;;;;5054727;28;19924;-59
2023/05/09 11:57:58;;;;;;;;;;;;;;;;;;5054767;28;19917;-59
2023/05/09 12:00:25;;;;;;;;;;;;;;;;;;5054632;28;19964;-59
2023/05/09 12:02:51;;;;;;;;;;;;;;;;;;5063161;28;19956;-60
2023/05/09 12:05:17;;;;;;;;;;;;;;;;;;5046205;28;19979;-60
2023/05/09 12:07:43;;;;;;;;;;;;;;;;;;5049367;28;19963;-60
2023/05/09 12:10:09;;;;;;;;;;;;;;;;;;5051609;28;20319;-60
2023/05/09 12:12:35;;;;;;;;;;;;;;;;;;5055403;28;19909;-60
2023/05/09 12:15:01;;;;;;;;;;;;;;;;;;5062926;28;19967;-60
2023/05/09 12:17:27;;;;;;;;;;;;;;;;;;5050454;28;19920;-60
2023/05/09 12:19:53;;;;;;;;;;;;;;;;;;5060586;28;19913;-60
2023/05/09 12:22:20;;;;;;;;;;;;;;;;;;5054959;28;19986;-59
2023/05/09 12:24:46;;;;;;;;;;;;;;;;;;5054238;28;19913;-59
2023/05/09 12:27:12;;;;;;;;;;;;;;;;;;5047008;28;19959;-60
2023/05/09 12:29:41;;;;;;;;;;;;;;;;;;5045725;28;19967;-60
2023/05/09 12:32:07;;;;;;;;;;;;;;;;;;5061972;28;19917;-60
2023/05/09 12:34:33;;;;;;;;;;;;;;;;;;5056731;28;20016;-60
2023/05/09 12:37:02;;;;;;;;;;;;;;;;;;5063247;28;20015;-59
2023/05/09 12:39:28;;;;;;;;;;;;;;;;;;5054909;28;19913;-59
2023/05/09 12:41:54;;;;;;;;;;;;;;;;;;5054081;28;19951;-59
2023/05/09 12:44:20;;;;;;;;;;;;;;;;;;5059595;28;19920;-59
2023/05/09 12:46:46;;;;;;;;;;;;;;;;;;5053428;28;19994;-59
2023/05/09 12:49:11;;;;;;;;;;;;;;;;;;5052890;28;19919;-60
2023/05/09 12:51:37;;;;;;;;;;;;;;;;;;5053202;28;19948;-60
2023/05/09 12:54:04;;;;;;;;;;;;;;;;;;5069204;28;19915;-59
2023/05/09 12:56:30;;;;;;;;;;;;;;;;;;5072173;28;19923;-59
2023/05/09 12:58:55;;;;;;;;;;;;;;;;;;5062186;28;20003;-59
2023/05/09 13:01:21;;;;;;;;;;;;;;;;;;5061707;28;19917;-59
2023/05/09 13:03:47;;;;;;;;;;;;;;;;;;5050499;28;20016;-60
2023/05/09 13:06:13;;;;;;;;;;;;;;;;;;5050271;28;19967;-60
2023/05/09 13:08:39;;;;;;;;;;;;;;;;;;5044819;28;19967;-59
2023/05/09 13:11:06;;;;;;;;;;;;;;;;;;5044044;28;19952;-60
2023/05/09 13:13:32;;;;;;;;;;;;;;;;;;5046779;28;19921;-59
2023/05/09 13:15:58;;;;;;;;;;;;;;;;;;5049802;28;19952;-60
2023/05/09 13:18:24;;;;;;;;;;;;;;;;;;5049155;28;20005;-60
2023/05/09 13:20:50;;;;;;;;;;;;;;;;;;5048512;28;20460;-59
2023/05/09 13:23:16;;;;;;;;;;;;;;;;;;5052361;28;19919;-59
2023/05/09 13:25:42;;;;;;;;;;;;;;;;;;5048481;28;19992;-59
2023/05/09 13:28:08;;;;;;;;;;;;;;;;;;5051355;28;19939;-59
2023/05/09 13:30:34;;;;;;;;;;;;;;;;;;5048286;28;19947;-59
2023/05/09 13:33:00;;;;;;;;;;;;;;;;;;5051581;28;19924;-60
2023/05/09 13:35:26;;;;;;;;;;;;;;;;;;5051704;28;20329;-59
2023/05/09 13:37:52;;;;;;;;;;;;;;;;;;5050824;28;19919;-59
2023/05/09 13:40:18;;;;;;;;;;;;;;;;;;5052633;28;19912;-60
2023/05/09 13:42:44;;;;;;;;;;;;;;;;;;5052456;28;19962;-59
2023/05/09 13:45:10;;;;;;;;;;;;;;;;;;5048715;28;19964;-60
2023/05/09 13:47:36;;;;;;;;;;;;;;;;;;5052019;28;20015;-60
2023/05/09 13:50:02;;;;;;;;;;;;;;;;;;5048841;28;20384;-60
2023/05/09 13:52:28;;;;;;;;;;;;;;;;;;5040896;28;20563;-60
2023/05/09 13:54:54;;;;;;;;;;;;;;;;;;5052395;28;19963;-59
2023/05/09 13:57:20;;;;;;;;;;;;;;;;;;5049383;28;19992;-59
2023/05/09 13:59:46;;;;;;;;;;;;;;;;;;5048845;28;20631;-59
2023/05/09 14:02:12;;;;;;;;;;;;;;;;;;5049018;28;19959;-59
2023/05/09 14:04:38;;;;;;;;;;;;;;;;;;5048062;28;20406;-59
2023/05/09 14:07:04;;;;;;;;;;;;;;;;;;5059608;28;19913;-59
2023/05/09 14:09:30;;;;;;;;;;;;;;;;;;5057785;28;19916;-59
2023/05/09 14:11:56;;;;;;;;;;;;;;;;;;5050913;28;19917;-60
2023/05/09 14:14:22;;;;;;;;;;;;;;;;;;5050423;28;19924;-60
2023/05/09 14:16:48;;;;;;;;;;;;;;;;;;5051340;28;19927;-59
2023/05/09 14:19:14;;;;;;;;;;;;;;;;;;5051580;28;19956;-59
2023/05/09 14:21:41;;;;;;;;;;;;;;;;;;5045756;28;19971;-59
2023/05/09 14:24:07;;;;;;;;;;;;;;;;;;5052190;28;20499;-59
2023/05/09 14:26:32;;;;;;;;;;;;;;;;;;5051325;28;19995;-59
2023/05/09 14:28:58;;;;;;;;;;;;;;;;;;5058865;28;20009;-59
2023/05/09 14:31:24;;;;;;;;;;;;;;;;;;5051361;28;19912;-59
2023/05/09 14:33:50;;;;;;;;;;;;;;;;;;5043848;28;19924;-59
2023/05/09 14:36:16;;;;;;;;;;;;;;;;;;5052094;28;19919;-59
2023/05/09 14:38:43;;;;;;;;;;;;;;;;;;5050221;28;19935;-59
2023/05/09 14:41:09;;;;;;;;;;;;;;;;;;5055248;28;20399;-60
2023/05/09 14:43:34;;;;;;;;;;;;;;;;;;5043800;28;19964;-59
2023/05/09 14:46:01;;;;;;;;;;;;;;;;;;5050713;28;19964;-59
2023/05/09 14:48:27;;;;;;;;;;;;;;;;;;5048366;28;20296;-60
2023/05/09 14:50:55;;;;;;;;;;;;;;;;;;5048213;28;19912;-59
2023/05/09 14:53:21;;;;;;;;;;;;;;;;;;5052950;28;20295;-59
2023/05/09 14:55:47;;;;;;;;;;;;;;;;;;5056578;28;19917;-59
2023/05/09 14:58:14;;;;;;;;;;;;;;;;;;5051836;28;20022;-59
2023/05/09 15:00:40;;;;;;;;;;;;;;;;;;5051445;28;20455;-59
2023/05/09 15:03:06;;;;;;;;;;;;;;;;;;5052933;28;19936;-59
2023/05/09 15:05:32;;;;;;;;;;;;;;;;;;5048717;28;19912;-59
2023/05/09 15:07:58;;;;;;;;;;;;;;;;;;5043170;28;19931;-59
2023/05/09 15:10:26;;;;;;;;;;;;;;;;;;5051676;28;19917;-59
2023/05/09 15:12:52;;;;;;;;;;;;;;;;;;5053788;28;20391;-59
2023/05/09 15:15:18;;;;;;;;;;;;;;;;;;5062538;28;19944;-59
2023/05/09 15:17:44;;;;;;;;;;;;;;;;;;5044191;28;19945;-59
2023/05/09 15:20:10;;;;;;;;;;;;;;;;;;5046571;28;20011;-59
2023/05/09 15:22:36;;;;;;;;;;;;;;;;;;5047631;28;19945;-59
2023/05/09 15:25:01;;;;;;;;;;;;;;;;;;5050713;28;19948;-60
2023/05/09 15:27:27;;;;;;;;;;;;;;;;;;5048294;28;19927;-59
2023/05/09 15:29:53;;;;;;;;;;;;;;;;;;5055476;28;19998;-59
2023/05/09 15:32:19;;;;;;;;;;;;;;;;;;5055754;28;20266;-59
2023/05/09 15:34:45;;;;;;;;;;;;;;;;;;5051624;28;19917;-59
2023/05/09 15:37:11;;;;;;;;;;;;;;;;;;5047351;28;19967;-59
2023/05/09 15:39:42;;;;;;;;;;;;;;;;;;5063962;28;19924;-60
2023/05/09 15:42:08;;;;;;;;;;;;;;;;;;5059911;28;19921;-60
2023/05/09 15:44:34;;;;;;;;;;;;;;;;;;5053957;28;19920;-60
2023/05/09 15:47:00;;;;;;;;;;;;;;;;;;5061143;28;19917;-59
2023/05/09 15:49:26;;;;;;;;;;;;;;;;;;5051369;28;19912;-60
2023/05/09 15:51:52;;;;;;;;;;;;;;;;;;5051312;28;20380;-60
2023/05/09 15:54:19;;;;;;;;;;;;;;;;;;5050426;28;19963;-60
2023/05/09 15:56:45;;;;;;;;;;;;;;;;;;5070110;28;19913;-60
2023/05/09 15:59:11;;;;;;;;;;;;;;;;;;5062835;28;19928;-60
2023/05/09 16:01:37;;;;;;;;;;;;;;;;;;5058977;28;19916;-60
2023/05/09 16:04:04;;;;;;;;;;;;;;;;;;5051227;28;20288;-60
2023/05/09 16:06:32;;;;;;;;;;;;;;;;;;5050118;28;20372;-60
2023/05/09 16:08:57;;;;;;;;;;;;;;;;;;5051381;28;19924;-65
2023/05/09 16:11:23;;;;;;;;;;;;;;;;;;5052023;28;19944;-60
2023/05/09 16:13:49;;;;;;;;;;;;;;;;;;5071728;28;20114;-60
2023/05/09 16:16:15;;;;;;;;;;;;;;;;;;5051730;28;19971;-60
2023/05/09 16:18:41;;;;;;;;;;;;;;;;;;5064584;28;20000;-59
2023/05/09 16:21:07;;;;;;;;;;;;;;;;;;5070167;28;20011;-61
2023/05/09 16:23:33;;;;;;;;;;;;;;;;;;5054876;28;19909;-61
2023/05/09 16:25:59;;;;;;;;;;;;;;;;;;5057389;28;19967;-61
2023/05/09 16:28:26;;;;;;;;;;;;;;;;;;5052169;28;19916;-59
2023/05/09 16:30:52;;;;;;;;;;;;;;;;;;5065036;28;19920;-61
2023/05/09 16:33:19;;;;;;;;;;;;;;;;;;5055774;28;19912;-61
2023/05/09 16:35:44;;;;;;;;;;;;;;;;;;5054539;28;19917;-62
2023/05/09 16:38:11;;;;;;;;;;;;;;;;;;5052672;28;20008;-61